sensor_id;sensor_type;location;lat;lon;timestamp;P1;durP1;ratioP1;P2;durP2;ratioP2
60867;SDS011;46702;48.370;10.794;2023-06-22T00:01:28;6.80;;;4.93;;
60867;SDS011;46702;48.370;10.794;2023-06-22T00:03:54;8.90;;;5.00;;
60867;SDS011;46702;48.370;10.794;2023-06-22T00:06:19;8.75;;;4.85;;
60867;SDS011;46702;48.370;10.794;2023-06-22T00:08:45;9.77;;;4.72;;
60867;SDS011;46702;48.370;10.794;2023-06-22T00:11:10;7.68;;;4.50;;
60867;SDS011;46702;48.370;10.794;2023-06-22T00:13:36;11.73;;;4.80;;
60867;SDS011;46702;48.370;10.794;2023-06-22T00:16:02;8.82;;;4.75;;
60867;SDS011;46702;48.370;10.794;2023-06-22T00:18:28;8.90;;;4.95;;
60867;SDS011;46702;48.370;10.794;2023-06-22T00:20:55;9.32;;;5.07;;
60867;SDS011;46702;48.370;10.794;2023-06-22T00:23:24;10.38;;;4.80;;
60867;SDS011;46702;48.370;10.794;2023-06-22T00:25:50;8.65;;;4.68;;
60867;SDS011;46702;48.370;10.794;2023-06-22T00:28:15;9.02;;;4.13;;
60867;SDS011;46702;48.370;10.794;2023-06-22T00:30:41;9.75;;;4.40;;
60867;SDS011;46702;48.370;10.794;2023-06-22T00:33:06;7.53;;;5.05;;
60867;SDS011;46702;48.370;10.794;2023-06-22T00:35:32;5.53;;;4.00;;
60867;SDS011;46702;48.370;10.794;2023-06-22T00:37:59;8.30;;;4.68;;
60867;SDS011;46702;48.370;10.794;2023-06-22T00:40:26;6.75;;;4.20;;
60867;SDS011;46702;48.370;10.794;2023-06-22T00:42:53;8.77;;;4.40;;
60867;SDS011;46702;48.370;10.794;2023-06-22T00:45:19;6.57;;;4.28;;
60867;SDS011;46702;48.370;10.794;2023-06-22T00:47:44;9.38;;;5.13;;
60867;SDS011;46702;48.370;10.794;2023-06-22T00:50:10;10.07;;;4.53;;
60867;SDS011;46702;48.370;10.794;2023-06-22T00:52:43;7.68;;;4.70;;
60867;SDS011;46702;48.370;10.794;2023-06-22T00:55:09;8.60;;;5.35;;
60867;SDS011;46702;48.370;10.794;2023-06-22T00:57:35;8.80;;;5.00;;
60867;SDS011;46702;48.370;10.794;2023-06-22T01:00:02;10.93;;;4.30;;
60867;SDS011;46702;48.370;10.794;2023-06-22T01:02:32;10.23;;;4.55;;
60867;SDS011;46702;48.370;10.794;2023-06-22T01:04:59;10.55;;;4.55;;
60867;SDS011;46702;48.370;10.794;2023-06-22T01:07:31;9.73;;;4.75;;
60867;SDS011;46702;48.370;10.794;2023-06-22T01:12:40;9.88;;;4.68;;
60867;SDS011;46702;48.370;10.794;2023-06-22T01:15:28;9.90;;;4.97;;
60867;SDS011;46702;48.370;10.794;2023-06-22T01:18:11;9.15;;;5.00;;
60867;SDS011;46702;48.370;10.794;2023-06-22T01:20:39;8.03;;;4.77;;
60867;SDS011;46702;48.370;10.794;2023-06-22T01:23:07;9.27;;;5.18;;
60867;SDS011;46702;48.370;10.794;2023-06-22T01:25:48;8.63;;;5.72;;
60867;SDS011;46702;48.370;10.794;2023-06-22T01:31:18;12.00;;;5.88;;
60867;SDS011;46702;48.370;10.794;2023-06-22T01:33:56;9.82;;;5.90;;
60867;SDS011;46702;48.370;10.794;2023-06-22T01:36:28;14.15;;;6.43;;
60867;SDS011;46702;48.370;10.794;2023-06-22T01:38:55;10.23;;;6.32;;
60867;SDS011;46702;48.370;10.794;2023-06-22T01:41:24;10.38;;;6.57;;
60867;SDS011;46702;48.370;10.794;2023-06-22T01:43:51;9.43;;;6.22;;
60867;SDS011;46702;48.370;10.794;2023-06-22T01:46:18;9.40;;;6.75;;
60867;SDS011;46702;48.370;10.794;2023-06-22T01:48:44;10.10;;;6.82;;
60867;SDS011;46702;48.370;10.794;2023-06-22T01:51:11;8.90;;;6.57;;
60867;SDS011;46702;48.370;10.794;2023-06-22T01:53:37;12.20;;;7.32;;
60867;SDS011;46702;48.370;10.794;2023-06-22T01:56:03;12.15;;;6.30;;
60867;SDS011;46702;48.370;10.794;2023-06-22T01:58:29;11.73;;;6.57;;
60867;SDS011;46702;48.370;10.794;2023-06-22T02:01:02;12.70;;;6.30;;
60867;SDS011;46702;48.370;10.794;2023-06-22T02:03:38;9.10;;;6.22;;
60867;SDS011;46702;48.370;10.794;2023-06-22T02:06:10;12.38;;;6.35;;
60867;SDS011;46702;48.370;10.794;2023-06-22T02:08:41;11.60;;;6.63;;
60867;SDS011;46702;48.370;10.794;2023-06-22T02:11:13;11.30;;;6.68;;
60867;SDS011;46702;48.370;10.794;2023-06-22T02:13:41;9.77;;;6.65;;
60867;SDS011;46702;48.370;10.794;2023-06-22T02:16:08;11.18;;;6.53;;
60867;SDS011;46702;48.370;10.794;2023-06-22T02:18:37;12.00;;;6.38;;
60867;SDS011;46702;48.370;10.794;2023-06-22T02:21:05;9.03;;;6.23;;
60867;SDS011;46702;48.370;10.794;2023-06-22T02:23:31;11.85;;;7.10;;
60867;SDS011;46702;48.370;10.794;2023-06-22T02:25:59;12.93;;;6.72;;
60867;SDS011;46702;48.370;10.794;2023-06-22T02:28:26;9.05;;;6.60;;
60867;SDS011;46702;48.370;10.794;2023-06-22T02:30:51;10.10;;;6.45;;
60867;SDS011;46702;48.370;10.794;2023-06-22T02:33:17;12.35;;;6.22;;
60867;SDS011;46702;48.370;10.794;2023-06-22T02:35:42;13.25;;;6.60;;
60867;SDS011;46702;48.370;10.794;2023-06-22T02:38:12;10.00;;;6.13;;
60867;SDS011;46702;48.370;10.794;2023-06-22T02:40:38;10.55;;;6.05;;
60867;SDS011;46702;48.370;10.794;2023-06-22T02:43:04;13.73;;;5.88;;
60867;SDS011;46702;48.370;10.794;2023-06-22T02:45:29;12.18;;;6.38;;
60867;SDS011;46702;48.370;10.794;2023-06-22T02:47:55;10.88;;;6.78;;
60867;SDS011;46702;48.370;10.794;2023-06-22T02:50:21;9.55;;;6.55;;
60867;SDS011;46702;48.370;10.794;2023-06-22T02:52:47;10.57;;;5.97;;
60867;SDS011;46702;48.370;10.794;2023-06-22T02:55:12;11.25;;;6.32;;
60867;SDS011;46702;48.370;10.794;2023-06-22T02:57:38;11.55;;;6.18;;
60867;SDS011;46702;48.370;10.794;2023-06-22T03:00:09;9.30;;;5.57;;
60867;SDS011;46702;48.370;10.794;2023-06-22T03:02:45;11.40;;;6.70;;
60867;SDS011;46702;48.370;10.794;2023-06-22T03:05:11;11.57;;;5.55;;
60867;SDS011;46702;48.370;10.794;2023-06-22T03:07:41;11.48;;;6.47;;
60867;SDS011;46702;48.370;10.794;2023-06-22T03:10:11;12.90;;;6.95;;
60867;SDS011;46702;48.370;10.794;2023-06-22T03:12:38;10.40;;;6.05;;
60867;SDS011;46702;48.370;10.794;2023-06-22T03:15:08;11.73;;;6.13;;
60867;SDS011;46702;48.370;10.794;2023-06-22T03:17:35;13.50;;;6.38;;
60867;SDS011;46702;48.370;10.794;2023-06-22T03:20:02;11.15;;;6.15;;
60867;SDS011;46702;48.370;10.794;2023-06-22T03:22:35;12.43;;;6.43;;
60867;SDS011;46702;48.370;10.794;2023-06-22T03:25:02;13.40;;;6.80;;
60867;SDS011;46702;48.370;10.794;2023-06-22T03:27:27;10.82;;;6.38;;
60867;SDS011;46702;48.370;10.794;2023-06-22T03:29:53;15.60;;;7.10;;
60867;SDS011;46702;48.370;10.794;2023-06-22T03:32:19;11.98;;;7.32;;
60867;SDS011;46702;48.370;10.794;2023-06-22T03:34:45;13.30;;;7.65;;
60867;SDS011;46702;48.370;10.794;2023-06-22T03:37:14;13.50;;;7.78;;
60867;SDS011;46702;48.370;10.794;2023-06-22T03:39:40;12.70;;;7.60;;
60867;SDS011;46702;48.370;10.794;2023-06-22T03:42:06;9.95;;;7.28;;
60867;SDS011;46702;48.370;10.794;2023-06-22T03:44:32;10.88;;;6.82;;
60867;SDS011;46702;48.370;10.794;2023-06-22T03:46:58;12.70;;;7.10;;
60867;SDS011;46702;48.370;10.794;2023-06-22T03:49:24;11.43;;;6.82;;
60867;SDS011;46702;48.370;10.794;2023-06-22T03:51:49;11.38;;;7.15;;
60867;SDS011;46702;48.370;10.794;2023-06-22T03:54:15;14.90;;;7.53;;
60867;SDS011;46702;48.370;10.794;2023-06-22T03:56:40;11.90;;;7.38;;
60867;SDS011;46702;48.370;10.794;2023-06-22T03:59:06;11.38;;;6.68;;
60867;SDS011;46702;48.370;10.794;2023-06-22T04:01:32;12.77;;;7.78;;
60867;SDS011;46702;48.370;10.794;2023-06-22T04:03:57;12.07;;;7.20;;
60867;SDS011;46702;48.370;10.794;2023-06-22T04:06:23;12.68;;;6.75;;
60867;SDS011;46702;48.370;10.794;2023-06-22T04:08:48;11.27;;;7.18;;
60867;SDS011;46702;48.370;10.794;2023-06-22T04:11:16;15.00;;;7.47;;
60867;SDS011;46702;48.370;10.794;2023-06-22T04:13:43;14.47;;;7.97;;
60867;SDS011;46702;48.370;10.794;2023-06-22T04:16:09;11.95;;;7.22;;
60867;SDS011;46702;48.370;10.794;2023-06-22T04:18:34;10.38;;;7.45;;
60867;SDS011;46702;48.370;10.794;2023-06-22T04:21:00;12.30;;;7.38;;
60867;SDS011;46702;48.370;10.794;2023-06-22T04:23:27;9.90;;;7.05;;
60867;SDS011;46702;48.370;10.794;2023-06-22T04:25:52;12.32;;;7.47;;
60867;SDS011;46702;48.370;10.794;2023-06-22T04:28:18;12.05;;;7.10;;
60867;SDS011;46702;48.370;10.794;2023-06-22T04:30:43;11.52;;;7.45;;
60867;SDS011;46702;48.370;10.794;2023-06-22T04:33:15;13.07;;;7.65;;
60867;SDS011;46702;48.370;10.794;2023-06-22T04:35:41;12.13;;;8.00;;
60867;SDS011;46702;48.370;10.794;2023-06-22T04:40:35;12.50;;;7.65;;
60867;SDS011;46702;48.370;10.794;2023-06-22T04:43:01;14.50;;;8.00;;
60867;SDS011;46702;48.370;10.794;2023-06-22T04:45:27;11.70;;;7.70;;
60867;SDS011;46702;48.370;10.794;2023-06-22T04:47:56;11.57;;;7.80;;
60867;SDS011;46702;48.370;10.794;2023-06-22T04:50:22;14.52;;;7.63;;
60867;SDS011;46702;48.370;10.794;2023-06-22T04:52:48;11.98;;;7.65;;
60867;SDS011;46702;48.370;10.794;2023-06-22T04:55:14;12.75;;;7.90;;
60867;SDS011;46702;48.370;10.794;2023-06-22T04:57:48;13.85;;;7.63;;
60867;SDS011;46702;48.370;10.794;2023-06-22T05:00:17;13.52;;;7.47;;
60867;SDS011;46702;48.370;10.794;2023-06-22T05:02:44;11.25;;;7.78;;
60867;SDS011;46702;48.370;10.794;2023-06-22T05:05:11;11.48;;;7.70;;
60867;SDS011;46702;48.370;10.794;2023-06-22T05:07:43;13.45;;;8.23;;
60867;SDS011;46702;48.370;10.794;2023-06-22T05:10:11;17.20;;;8.63;;
60867;SDS011;46702;48.370;10.794;2023-06-22T05:12:40;12.32;;;7.70;;
60867;SDS011;46702;48.370;10.794;2023-06-22T05:15:09;16.55;;;7.95;;
60867;SDS011;46702;48.370;10.794;2023-06-22T05:17:35;15.05;;;8.18;;
60867;SDS011;46702;48.370;10.794;2023-06-22T05:20:01;14.27;;;7.57;;
60867;SDS011;46702;48.370;10.794;2023-06-22T05:22:31;16.23;;;8.35;;
60867;SDS011;46702;48.370;10.794;2023-06-22T05:24:56;15.05;;;7.93;;
60867;SDS011;46702;48.370;10.794;2023-06-22T05:27:22;15.52;;;8.43;;
60867;SDS011;46702;48.370;10.794;2023-06-22T05:29:48;13.35;;;8.27;;
60867;SDS011;46702;48.370;10.794;2023-06-22T05:32:13;13.88;;;7.60;;
60867;SDS011;46702;48.370;10.794;2023-06-22T05:34:39;14.18;;;8.02;;
60867;SDS011;46702;48.370;10.794;2023-06-22T05:37:05;13.15;;;7.90;;
60867;SDS011;46702;48.370;10.794;2023-06-22T05:39:31;13.48;;;8.27;;
60867;SDS011;46702;48.370;10.794;2023-06-22T05:41:56;11.63;;;8.02;;
60867;SDS011;46702;48.370;10.794;2023-06-22T05:44:22;11.43;;;7.40;;
60867;SDS011;46702;48.370;10.794;2023-06-22T05:46:48;11.43;;;6.80;;
60867;SDS011;46702;48.370;10.794;2023-06-22T05:49:13;10.95;;;7.15;;
60867;SDS011;46702;48.370;10.794;2023-06-22T05:51:39;11.02;;;7.18;;
60867;SDS011;46702;48.370;10.794;2023-06-22T05:54:06;10.45;;;5.50;;
60867;SDS011;46702;48.370;10.794;2023-06-22T05:56:33;9.75;;;5.90;;
60867;SDS011;46702;48.370;10.794;2023-06-22T05:58:58;9.05;;;6.47;;
60867;SDS011;46702;48.370;10.794;2023-06-22T06:01:24;8.45;;;5.20;;
60867;SDS011;46702;48.370;10.794;2023-06-22T06:03:50;10.25;;;5.38;;
60867;SDS011;46702;48.370;10.794;2023-06-22T06:06:17;9.07;;;6.07;;
60867;SDS011;46702;48.370;10.794;2023-06-22T06:08:46;11.43;;;5.70;;
60867;SDS011;46702;48.370;10.794;2023-06-22T06:11:11;11.20;;;5.40;;
60867;SDS011;46702;48.370;10.794;2023-06-22T06:13:37;10.05;;;5.53;;
60867;SDS011;46702;48.370;10.794;2023-06-22T06:16:03;7.93;;;5.25;;
60867;SDS011;46702;48.370;10.794;2023-06-22T06:18:28;10.68;;;5.43;;
60867;SDS011;46702;48.370;10.794;2023-06-22T06:20:54;10.00;;;5.80;;
60867;SDS011;46702;48.370;10.794;2023-06-22T06:23:20;10.73;;;5.88;;
60867;SDS011;46702;48.370;10.794;2023-06-22T06:25:45;11.77;;;5.70;;
60867;SDS011;46702;48.370;10.794;2023-06-22T06:28:11;8.50;;;5.43;;
60867;SDS011;46702;48.370;10.794;2023-06-22T06:30:36;7.78;;;4.90;;
60867;SDS011;46702;48.370;10.794;2023-06-22T06:33:02;8.10;;;5.40;;
60867;SDS011;46702;48.370;10.794;2023-06-22T06:35:29;9.85;;;5.65;;
60867;SDS011;46702;48.370;10.794;2023-06-22T06:37:55;10.30;;;5.50;;
60867;SDS011;46702;48.370;10.794;2023-06-22T06:40:21;10.38;;;5.40;;
60867;SDS011;46702;48.370;10.794;2023-06-22T06:42:47;10.45;;;5.65;;
60867;SDS011;46702;48.370;10.794;2023-06-22T06:45:17;10.65;;;5.50;;
60867;SDS011;46702;48.370;10.794;2023-06-22T06:47:44;7.53;;;4.78;;
60867;SDS011;46702;48.370;10.794;2023-06-22T06:50:11;12.43;;;6.00;;
60867;SDS011;46702;48.370;10.794;2023-06-22T06:52:37;8.90;;;5.97;;
60867;SDS011;46702;48.370;10.794;2023-06-22T06:55:03;9.10;;;5.05;;
60867;SDS011;46702;48.370;10.794;2023-06-22T06:57:33;10.65;;;5.10;;
60867;SDS011;46702;48.370;10.794;2023-06-22T06:59:59;14.82;;;5.90;;
60867;SDS011;46702;48.370;10.794;2023-06-22T07:02:25;9.82;;;5.43;;
60867;SDS011;46702;48.370;10.794;2023-06-22T07:04:52;9.13;;;5.22;;
60867;SDS011;46702;48.370;10.794;2023-06-22T07:07:20;15.20;;;6.28;;
60867;SDS011;46702;48.370;10.794;2023-06-22T07:09:46;6.07;;;4.72;;
60867;SDS011;46702;48.370;10.794;2023-06-22T07:12:11;10.45;;;5.40;;
60867;SDS011;46702;48.370;10.794;2023-06-22T07:14:37;8.93;;;5.00;;
60867;SDS011;46702;48.370;10.794;2023-06-22T07:17:03;9.68;;;4.68;;
60867;SDS011;46702;48.370;10.794;2023-06-22T07:19:28;8.00;;;5.68;;
60867;SDS011;46702;48.370;10.794;2023-06-22T07:21:55;8.07;;;4.70;;
60867;SDS011;46702;48.370;10.794;2023-06-22T07:24:21;7.03;;;5.28;;
60867;SDS011;46702;48.370;10.794;2023-06-22T07:26:47;8.50;;;5.05;;
60867;SDS011;46702;48.370;10.794;2023-06-22T07:29:15;12.02;;;5.32;;
60867;SDS011;46702;48.370;10.794;2023-06-22T07:31:41;7.70;;;4.88;;
60867;SDS011;46702;48.370;10.794;2023-06-22T07:34:07;10.10;;;4.68;;
60867;SDS011;46702;48.370;10.794;2023-06-22T07:36:33;8.68;;;4.43;;
60867;SDS011;46702;48.370;10.794;2023-06-22T07:39:00;9.80;;;4.68;;
60867;SDS011;46702;48.370;10.794;2023-06-22T07:41:28;10.60;;;4.82;;
60867;SDS011;46702;48.370;10.794;2023-06-22T07:43:53;13.55;;;5.93;;
60867;SDS011;46702;48.370;10.794;2023-06-22T07:46:19;9.18;;;5.05;;
60867;SDS011;46702;48.370;10.794;2023-06-22T07:48:45;12.18;;;5.22;;
60867;SDS011;46702;48.370;10.794;2023-06-22T07:51:10;9.82;;;5.15;;
60867;SDS011;46702;48.370;10.794;2023-06-22T07:53:42;7.82;;;4.95;;
60867;SDS011;46702;48.370;10.794;2023-06-22T07:56:12;10.65;;;5.20;;
60867;SDS011;46702;48.370;10.794;2023-06-22T07:58:38;10.23;;;5.00;;
60867;SDS011;46702;48.370;10.794;2023-06-22T08:01:03;9.52;;;4.78;;
60867;SDS011;46702;48.370;10.794;2023-06-22T08:03:29;6.63;;;4.40;;
60867;SDS011;46702;48.370;10.794;2023-06-22T08:05:55;8.48;;;5.00;;
60867;SDS011;46702;48.370;10.794;2023-06-22T08:08:21;10.30;;;5.65;;
60867;SDS011;46702;48.370;10.794;2023-06-22T08:10:46;8.93;;;4.82;;
60867;SDS011;46702;48.370;10.794;2023-06-22T08:13:12;6.07;;;4.80;;
60867;SDS011;46702;48.370;10.794;2023-06-22T08:15:37;9.55;;;5.53;;
60867;SDS011;46702;48.370;10.794;2023-06-22T08:18:03;11.68;;;5.50;;
60867;SDS011;46702;48.370;10.794;2023-06-22T08:20:29;8.60;;;5.03;;
60867;SDS011;46702;48.370;10.794;2023-06-22T08:22:55;11.38;;;5.40;;
60867;SDS011;46702;48.370;10.794;2023-06-22T08:25:21;8.05;;;4.80;;
60867;SDS011;46702;48.370;10.794;2023-06-22T08:27:47;14.25;;;5.50;;
60867;SDS011;46702;48.370;10.794;2023-06-22T08:30:13;10.82;;;5.32;;
60867;SDS011;46702;48.370;10.794;2023-06-22T08:32:39;9.00;;;5.03;;
60867;SDS011;46702;48.370;10.794;2023-06-22T08:35:05;13.63;;;5.40;;
60867;SDS011;46702;48.370;10.794;2023-06-22T08:37:34;12.18;;;5.10;;
60867;SDS011;46702;48.370;10.794;2023-06-22T08:40:01;8.75;;;5.60;;
60867;SDS011;46702;48.370;10.794;2023-06-22T08:42:35;9.57;;;4.65;;
60867;SDS011;46702;48.370;10.794;2023-06-22T08:45:02;19.75;;;5.80;;
60867;SDS011;46702;48.370;10.794;2023-06-22T08:47:28;12.52;;;5.35;;
60867;SDS011;46702;48.370;10.794;2023-06-22T08:49:57;10.18;;;5.30;;
60867;SDS011;46702;48.370;10.794;2023-06-22T08:52:22;9.50;;;5.35;;
60867;SDS011;46702;48.370;10.794;2023-06-22T08:54:48;12.35;;;5.20;;
60867;SDS011;46702;48.370;10.794;2023-06-22T08:57:14;9.93;;;4.80;;
60867;SDS011;46702;48.370;10.794;2023-06-22T08:59:41;10.70;;;5.05;;
60867;SDS011;46702;48.370;10.794;2023-06-22T09:02:10;10.02;;;4.70;;
60867;SDS011;46702;48.370;10.794;2023-06-22T09:04:36;9.40;;;4.80;;
60867;SDS011;46702;48.370;10.794;2023-06-22T09:07:02;11.27;;;5.10;;
60867;SDS011;46702;48.370;10.794;2023-06-22T09:09:28;11.18;;;5.05;;
60867;SDS011;46702;48.370;10.794;2023-06-22T09:11:54;9.55;;;4.90;;
60867;SDS011;46702;48.370;10.794;2023-06-22T09:14:19;12.05;;;5.40;;
60867;SDS011;46702;48.370;10.794;2023-06-22T09:16:45;9.55;;;4.93;;
60867;SDS011;46702;48.370;10.794;2023-06-22T09:19:11;10.23;;;5.00;;
60867;SDS011;46702;48.370;10.794;2023-06-22T09:21:37;10.07;;;4.53;;
60867;SDS011;46702;48.370;10.794;2023-06-22T09:24:03;11.18;;;5.00;;
60867;SDS011;46702;48.370;10.794;2023-06-22T09:26:29;8.27;;;5.22;;
60867;SDS011;46702;48.370;10.794;2023-06-22T09:28:55;8.18;;;4.60;;
60867;SDS011;46702;48.370;10.794;2023-06-22T09:31:20;9.45;;;4.78;;
60867;SDS011;46702;48.370;10.794;2023-06-22T09:33:54;7.57;;;4.50;;
60867;SDS011;46702;48.370;10.794;2023-06-22T09:36:23;8.90;;;5.10;;
60867;SDS011;46702;48.370;10.794;2023-06-22T09:38:49;11.65;;;4.75;;
60867;SDS011;46702;48.370;10.794;2023-06-22T09:41:20;9.50;;;4.93;;
60867;SDS011;46702;48.370;10.794;2023-06-22T09:43:46;10.52;;;4.95;;
60867;SDS011;46702;48.370;10.794;2023-06-22T09:46:13;7.22;;;4.70;;
60867;SDS011;46702;48.370;10.794;2023-06-22T09:48:40;12.57;;;4.90;;
60867;SDS011;46702;48.370;10.794;2023-06-22T09:51:05;9.63;;;4.70;;
60867;SDS011;46702;48.370;10.794;2023-06-22T09:53:31;11.07;;;5.35;;
60867;SDS011;46702;48.370;10.794;2023-06-22T09:55:56;10.50;;;5.72;;
60867;SDS011;46702;48.370;10.794;2023-06-22T09:58:22;10.57;;;5.13;;
60867;SDS011;46702;48.370;10.794;2023-06-22T10:00:48;10.35;;;5.57;;
60867;SDS011;46702;48.370;10.794;2023-06-22T10:03:14;10.75;;;4.75;;
60867;SDS011;46702;48.370;10.794;2023-06-22T10:05:39;8.27;;;4.90;;
60867;SDS011;46702;48.370;10.794;2023-06-22T10:08:05;11.15;;;5.32;;
60867;SDS011;46702;48.370;10.794;2023-06-22T10:10:32;10.57;;;5.90;;
60867;SDS011;46702;48.370;10.794;2023-06-22T10:13:02;12.65;;;5.10;;
60867;SDS011;46702;48.370;10.794;2023-06-22T10:15:34;11.13;;;5.57;;
60867;SDS011;46702;48.370;10.794;2023-06-22T10:17:59;11.82;;;5.55;;
60867;SDS011;46702;48.370;10.794;2023-06-22T10:20:25;9.77;;;5.05;;
60867;SDS011;46702;48.370;10.794;2023-06-22T10:22:51;9.57;;;4.63;;
60867;SDS011;46702;48.370;10.794;2023-06-22T10:25:17;11.15;;;4.93;;
60867;SDS011;46702;48.370;10.794;2023-06-22T10:27:42;11.77;;;5.43;;
60867;SDS011;46702;48.370;10.794;2023-06-22T10:30:09;9.63;;;4.90;;
60867;SDS011;46702;48.370;10.794;2023-06-22T10:32:37;10.63;;;5.50;;
60867;SDS011;46702;48.370;10.794;2023-06-22T10:35:04;7.07;;;4.97;;
60867;SDS011;46702;48.370;10.794;2023-06-22T10:37:30;9.77;;;5.22;;
60867;SDS011;46702;48.370;10.794;2023-06-22T10:39:55;9.30;;;5.93;;
60867;SDS011;46702;48.370;10.794;2023-06-22T10:42:21;8.57;;;5.18;;
60867;SDS011;46702;48.370;10.794;2023-06-22T10:44:47;9.18;;;5.25;;
60867;SDS011;46702;48.370;10.794;2023-06-22T10:47:12;10.00;;;5.22;;
60867;SDS011;46702;48.370;10.794;2023-06-22T10:49:38;10.35;;;5.07;;
60867;SDS011;46702;48.370;10.794;2023-06-22T10:52:07;11.98;;;5.03;;
60867;SDS011;46702;48.370;10.794;2023-06-22T10:54:34;9.00;;;5.05;;
60867;SDS011;46702;48.370;10.794;2023-06-22T10:57:00;10.25;;;5.65;;
60867;SDS011;46702;48.370;10.794;2023-06-22T10:59:27;9.77;;;4.77;;
60867;SDS011;46702;48.370;10.794;2023-06-22T11:01:53;10.20;;;5.10;;
60867;SDS011;46702;48.370;10.794;2023-06-22T11:04:20;11.23;;;5.03;;
60867;SDS011;46702;48.370;10.794;2023-06-22T11:06:46;7.53;;;5.00;;
60867;SDS011;46702;48.370;10.794;2023-06-22T11:09:12;13.02;;;5.28;;
60867;SDS011;46702;48.370;10.794;2023-06-22T11:11:43;16.60;;;6.07;;
60867;SDS011;46702;48.370;10.794;2023-06-22T11:14:09;9.00;;;5.10;;
60867;SDS011;46702;48.370;10.794;2023-06-22T11:16:34;11.07;;;5.10;;
60867;SDS011;46702;48.370;10.794;2023-06-22T11:19:00;10.15;;;4.90;;
60867;SDS011;46702;48.370;10.794;2023-06-22T11:21:26;10.27;;;5.63;;
60867;SDS011;46702;48.370;10.794;2023-06-22T11:23:51;10.23;;;5.05;;
60867;SDS011;46702;48.370;10.794;2023-06-22T11:26:17;10.82;;;6.18;;
60867;SDS011;46702;48.370;10.794;2023-06-22T11:28:42;9.32;;;5.15;;
60867;SDS011;46702;48.370;10.794;2023-06-22T11:31:08;11.55;;;5.53;;
60867;SDS011;46702;48.370;10.794;2023-06-22T11:33:34;11.60;;;5.32;;
60867;SDS011;46702;48.370;10.794;2023-06-22T11:35:59;15.65;;;5.13;;
60867;SDS011;46702;48.370;10.794;2023-06-22T11:38:25;10.45;;;4.50;;
60867;SDS011;46702;48.370;10.794;2023-06-22T11:40:51;7.45;;;5.50;;
60867;SDS011;46702;48.370;10.794;2023-06-22T11:43:16;9.43;;;4.78;;
60867;SDS011;46702;48.370;10.794;2023-06-22T11:45:42;11.10;;;5.55;;
60867;SDS011;46702;48.370;10.794;2023-06-22T11:48:08;10.20;;;4.63;;
60867;SDS011;46702;48.370;10.794;2023-06-22T11:50:33;11.35;;;5.40;;
60867;SDS011;46702;48.370;10.794;2023-06-22T11:55:29;13.35;;;5.18;;
60867;SDS011;46702;48.370;10.794;2023-06-22T11:57:56;12.57;;;5.53;;
60867;SDS011;46702;48.370;10.794;2023-06-22T12:00:24;13.07;;;5.57;;
60867;SDS011;46702;48.370;10.794;2023-06-22T12:02:50;10.38;;;5.65;;
60867;SDS011;46702;48.370;10.794;2023-06-22T12:05:17;10.95;;;5.85;;
60867;SDS011;46702;48.370;10.794;2023-06-22T12:07:44;13.50;;;6.05;;
60867;SDS011;46702;48.370;10.794;2023-06-22T12:10:10;8.98;;;5.50;;
60867;SDS011;46702;48.370;10.794;2023-06-22T12:12:35;12.73;;;5.60;;
60867;SDS011;46702;48.370;10.794;2023-06-22T12:15:01;12.70;;;6.03;;
60867;SDS011;46702;48.370;10.794;2023-06-22T12:17:28;10.45;;;5.47;;
60867;SDS011;46702;48.370;10.794;2023-06-22T12:19:55;13.02;;;6.20;;
60867;SDS011;46702;48.370;10.794;2023-06-22T12:22:20;10.15;;;5.25;;
60867;SDS011;46702;48.370;10.794;2023-06-22T12:24:46;11.63;;;5.95;;
60867;SDS011;46702;48.370;10.794;2023-06-22T12:27:12;12.18;;;5.20;;
60867;SDS011;46702;48.370;10.794;2023-06-22T12:29:37;9.18;;;4.80;;
60867;SDS011;46702;48.370;10.794;2023-06-22T12:32:03;10.77;;;5.43;;
60867;SDS011;46702;48.370;10.794;2023-06-22T12:34:29;9.15;;;5.03;;
60867;SDS011;46702;48.370;10.794;2023-06-22T12:36:55;11.50;;;5.32;;
60867;SDS011;46702;48.370;10.794;2023-06-22T12:39:20;10.68;;;5.60;;
60867;SDS011;46702;48.370;10.794;2023-06-22T12:41:46;11.43;;;5.05;;
60867;SDS011;46702;48.370;10.794;2023-06-22T12:44:11;9.98;;;5.35;;
60867;SDS011;46702;48.370;10.794;2023-06-22T12:46:37;10.25;;;5.32;;
60867;SDS011;46702;48.370;10.794;2023-06-22T12:49:06;10.07;;;5.88;;
60867;SDS011;46702;48.370;10.794;2023-06-22T12:51:31;9.75;;;5.30;;
60867;SDS011;46702;48.370;10.794;2023-06-22T12:53:57;10.75;;;5.03;;
60867;SDS011;46702;48.370;10.794;2023-06-22T12:56:23;9.52;;;5.63;;
60867;SDS011;46702;48.370;10.794;2023-06-22T12:58:48;12.65;;;4.47;;
60867;SDS011;46702;48.370;10.794;2023-06-22T13:01:14;10.25;;;5.20;;
60867;SDS011;46702;48.370;10.794;2023-06-22T13:03:40;11.23;;;5.47;;
60867;SDS011;46702;48.370;10.794;2023-06-22T13:08:32;8.37;;;4.83;;
60867;SDS011;46702;48.370;10.794;2023-06-22T13:10:57;9.48;;;4.60;;
60867;SDS011;46702;48.370;10.794;2023-06-22T13:13:23;8.50;;;5.05;;
60867;SDS011;46702;48.370;10.794;2023-06-22T13:15:51;8.68;;;4.35;;
60867;SDS011;46702;48.370;10.794;2023-06-22T13:18:18;7.33;;;4.60;;
60867;SDS011;46702;48.370;10.794;2023-06-22T13:20:43;10.75;;;5.03;;
60867;SDS011;46702;48.370;10.794;2023-06-22T13:23:10;7.90;;;4.63;;
60867;SDS011;46702;48.370;10.794;2023-06-22T13:25:36;11.10;;;4.82;;
60867;SDS011;46702;48.370;10.794;2023-06-22T13:28:02;14.35;;;5.60;;
60867;SDS011;46702;48.370;10.794;2023-06-22T13:30:27;11.02;;;4.80;;
60867;SDS011;46702;48.370;10.794;2023-06-22T13:32:53;10.85;;;4.60;;
60867;SDS011;46702;48.370;10.794;2023-06-22T13:35:19;10.48;;;4.60;;
60867;SDS011;46702;48.370;10.794;2023-06-22T13:37:44;8.18;;;4.63;;
60867;SDS011;46702;48.370;10.794;2023-06-22T13:40:10;12.43;;;4.47;;
60867;SDS011;46702;48.370;10.794;2023-06-22T13:42:36;12.75;;;5.53;;
60867;SDS011;46702;48.370;10.794;2023-06-22T13:45:02;13.05;;;4.30;;
60867;SDS011;46702;48.370;10.794;2023-06-22T13:47:28;11.98;;;4.28;;
60867;SDS011;46702;48.370;10.794;2023-06-22T13:49:55;9.73;;;4.63;;
60867;SDS011;46702;48.370;10.794;2023-06-22T13:52:20;9.88;;;4.25;;
60867;SDS011;46702;48.370;10.794;2023-06-22T13:54:46;16.00;;;4.55;;
60867;SDS011;46702;48.370;10.794;2023-06-22T13:57:12;10.52;;;4.25;;
60867;SDS011;46702;48.370;10.794;2023-06-22T13:59:37;10.88;;;4.82;;
60867;SDS011;46702;48.370;10.794;2023-06-22T14:02:03;10.02;;;4.65;;
60867;SDS011;46702;48.370;10.794;2023-06-22T14:04:29;10.20;;;4.40;;
60867;SDS011;46702;48.370;10.794;2023-06-22T14:06:54;10.18;;;4.00;;
60867;SDS011;46702;48.370;10.794;2023-06-22T14:09:21;10.13;;;4.23;;
60867;SDS011;46702;48.370;10.794;2023-06-22T14:11:46;15.07;;;4.60;;
60867;SDS011;46702;48.370;10.794;2023-06-22T14:14:12;11.18;;;4.65;;
60867;SDS011;46702;48.370;10.794;2023-06-22T14:16:37;12.07;;;4.60;;
60867;SDS011;46702;48.370;10.794;2023-06-22T14:19:03;12.07;;;4.78;;
60867;SDS011;46702;48.370;10.794;2023-06-22T14:21:29;10.18;;;4.90;;
60867;SDS011;46702;48.370;10.794;2023-06-22T14:23:54;14.30;;;4.70;;
60867;SDS011;46702;48.370;10.794;2023-06-22T14:26:20;11.70;;;4.43;;
60867;SDS011;46702;48.370;10.794;2023-06-22T14:28:46;8.30;;;4.70;;
60867;SDS011;46702;48.370;10.794;2023-06-22T14:31:16;10.90;;;4.82;;
60867;SDS011;46702;48.370;10.794;2023-06-22T14:33:45;12.43;;;4.90;;
60867;SDS011;46702;48.370;10.794;2023-06-22T14:36:12;8.25;;;4.53;;